Time;durP1;ratioP1;P1;durP2;ratioP2;P2;SDS_P1;SDS_P2;PMS_P1;PMS_P2;Temp;Humidity;BMP_temperature;BMP_pressure;BME280_temperature;BME280_humidity;BME280_pressure;Samples;Min_cycle;Max_cycle;Signal;HPM_P1;HPM_P2
2023/07/12 00:00:17;;;;;;;;;;;27.10;98.30;27.10;99237.00;;;;345700;28;92696;-92
2023/07/12 00:00:30;;;;;;;;;;;27.10;98.30;27.10;99238.00;;;;346168;28;82557;-92
2023/07/12 00:00:42;;;;;;;;;;;27.20;98.40;27.00;99235.00;;;;347122;28;91327;-91
2023/07/12 00:00:54;;;;;;;;;;;27.10;98.50;27.00;99238.00;;;;346139;28;82514;-93
2023/07/12 00:01:08;;;;;;;;;;;27.10;98.50;27.00;99235.00;;;;345496;28;90915;-92
2023/07/12 00:01:21;;;;;;;;;;;27.10;98.50;27.00;99233.00;;;;347606;28;82594;-92
2023/07/12 00:01:32;;;;;;;;;;;27.10;98.50;27.10;99232.00;;;;345756;28;91664;-92
2023/07/12 00:01:44;;;;;;;;;;;27.10;98.50;27.20;99239.00;;;;347239;27;83298;-91
2023/07/12 00:01:56;;;;;;;;;;;27.10;98.50;27.10;99221.00;;;;346956;28;90922;-92
2023/07/12 00:02:08;;;;;;;;;;;27.10;98.50;27.10;99224.00;;;;348777;27;83522;-92
2023/07/12 00:02:20;;;;;;;;;;;27.10;98.50;27.00;99234.00;;;;346998;28;93420;-93
2023/07/12 00:02:32;;;;;;;;;;;27.10;98.60;27.00;99228.00;;;;348715;27;82418;-92
2023/07/12 00:02:44;;;;;;;;;;;27.10;98.60;27.10;99226.00;;;;349669;27;92260;-92
2023/07/12 00:02:57;;;;;;;;;;;27.10;98.60;27.20;99236.00;;;;347530;28;82531;-92
2023/07/12 00:03:09;;;;;;;;;;;27.10;98.60;27.30;99233.00;;;;345692;28;91688;-92
2023/07/12 00:03:21;;;;;;;;;;;27.10;98.60;27.30;99232.00;;;;348967;27;83259;-91
2023/07/12 00:03:33;;;;;;;;;;;27.10;98.60;27.30;99237.00;;;;344223;28;89308;-92
2023/07/12 00:03:45;;;;;;;;;;;27.10;98.60;27.30;99238.00;;;;347407;28;83493;-92
2023/07/12 00:03:56;;;;;;;;;;;27.10;98.50;27.30;99238.00;;;;348553;27;91795;-92
2023/07/12 00:04:12;;;;;;;;;;;27.20;98.60;27.30;99235.00;;;;348580;27;83513;-91
2023/07/12 00:04:24;;;;;;;;;;;27.20;98.60;27.30;99238.00;;;;345562;28;91642;-92
2023/07/12 00:04:36;;;;;;;;;;;27.20;98.60;27.20;99243.00;;;;346043;28;82563;-92
2023/07/12 00:04:48;;;;;;;;;;;27.20;98.60;27.10;99244.00;;;;344290;28;91665;-92
2023/07/12 00:05:01;;;;;;;;;;;27.20;98.60;27.30;99252.00;;;;346142;28;84031;-92
2023/07/12 00:05:13;;;;;;;;;;;27.20;98.60;27.20;99252.00;;;;345619;28;91238;-92
2023/07/12 00:05:28;;;;;;;;;;;27.20;98.60;27.30;99255.00;;;;344585;28;82585;-92
2023/07/12 00:05:40;;;;;;;;;;;27.20;98.60;27.30;99253.00;;;;344296;28;90458;-92
2023/07/12 00:05:52;;;;;;;;;;;27.20;98.60;27.30;99255.00;;;;344703;28;83462;-92
2023/07/12 00:06:11;;;;;;;;;;;27.20;98.60;27.40;99270.00;;;;346973;28;90415;-92
2023/07/12 00:06:29;;;;;;;;;;;27.20;98.60;27.40;99270.00;;;;346095;28;83427;-92
2023/07/12 00:06:40;;;;;;;;;;;27.20;98.60;27.30;99273.00;;;;347094;28;90031;-92
2023/07/12 00:06:52;;;;;;;;;;;27.20;98.60;27.40;99277.00;;;;348920;27;82530;-92
2023/07/12 00:07:04;;;;;;;;;;;27.20;98.60;27.40;99274.00;;;;345613;28;91817;-92
2023/07/12 00:07:16;;;;;;;;;;;27.20;98.50;27.40;99283.00;;;;347303;28;83440;-92
2023/07/12 00:07:28;;;;;;;;;;;27.20;98.50;27.40;99279.00;;;;347144;28;91350;-92
2023/07/12 00:07:40;;;;;;;;;;;27.20;98.50;27.40;99276.00;;;;346097;28;82503;-92
2023/07/12 00:07:52;;;;;;;;;;;27.30;98.60;27.40;99282.00;;;;345550;28;91446;-92
2023/07/12 00:08:04;;;;;;;;;;;27.30;98.50;27.30;99290.00;;;;347544;28;83409;-92
2023/07/12 00:08:26;;;;;;;;;;;27.30;98.50;27.20;99289.00;;;;347164;28;90780;-92
2023/07/12 00:08:40;;;;;;;;;;;27.30;98.50;27.20;99287.00;;;;346189;28;83447;-91
2023/07/12 00:08:52;;;;;;;;;;;27.30;98.50;27.30;99295.00;;;;347009;28;91759;-92
2023/07/12 00:09:05;;;;;;;;;;;27.30;98.50;27.30;99293.00;;;;347417;28;82605;-92
2023/07/12 00:09:16;;;;;;;;;;;27.30;98.50;27.30;99292.00;;;;348260;27;91079;-92
2023/07/12 00:09:28;;;;;;;;;;;27.30;98.50;27.10;99294.00;;;;347575;28;83368;-92
2023/07/12 00:09:40;;;;;;;;;;;27.30;98.50;27.10;99287.00;;;;347127;28;90721;-92
2023/07/12 00:09:52;;;;;;;;;;;27.30;98.50;27.20;99289.00;;;;351663;27;82453;-91
2023/07/12 00:10:21;;;;;;;;;;;27.30;98.50;27.30;99284.00;;;;347082;28;89114;-92
2023/07/12 00:10:35;;;;;;;;;;;27.30;98.50;27.30;99270.00;;;;347511;28;83418;-91
2023/07/12 00:10:47;;;;;;;;;;;27.30;98.50;27.30;99275.00;;;;349898;27;90203;-91
2023/07/12 00:10:59;;;;;;;;;;;27.30;98.50;27.30;99271.00;;;;347523;28;83252;-92
2023/07/12 00:11:19;;;;;;;;;;;27.30;98.50;27.30;99272.00;;;;348291;27;91709;-92
2023/07/12 00:11:31;;;;;;;;;;;27.30;98.50;27.30;99264.00;;;;347270;28;82548;-92
2023/07/12 00:11:42;;;;;;;;;;;27.30;98.60;27.30;99261.00;;;;345593;28;90858;-91
2023/07/12 00:11:54;;;;;;;;;;;27.30;98.60;27.30;99263.00;;;;347572;28;82502;-92
2023/07/12 00:12:06;;;;;;;;;;;27.30;98.50;27.30;99258.00;;;;345448;28;90435;-92
2023/07/12 00:12:18;;;;;;;;;;;27.30;98.50;27.10;99255.00;;;;345934;28;83486;-92
2023/07/12 00:12:30;;;;;;;;;;;27.30;98.40;27.10;99259.00;;;;345665;28;90733;-91
2023/07/12 00:12:42;;;;;;;;;;;27.30;98.40;26.90;99253.00;;;;347582;28;82487;-92
2023/07/12 00:12:54;;;;;;;;;;;27.30;98.50;26.90;99255.00;;;;347278;28;90450;-92
2023/07/12 00:13:06;;;;;;;;;;;27.20;98.40;27.00;99250.00;;;;344687;28;83534;-92
2023/07/12 00:13:17;;;;;;;;;;;27.20;98.40;27.00;99247.00;;;;348284;27;90635;-90
2023/07/12 00:13:29;;;;;;;;;;;27.20;98.40;27.10;99248.00;;;;346022;28;83442;-92
2023/07/12 00:13:42;;;;;;;;;;;27.20;98.50;27.10;99251.00;;;;345524;28;91470;-91
2023/07/12 00:13:54;;;;;;;;;;;27.20;98.50;27.00;99250.00;;;;347419;28;82543;-92
2023/07/12 00:14:07;;;;;;;;;;;27.20;98.60;27.00;99250.00;;;;348589;27;87959;-92
2023/07/12 00:14:18;;;;;;;;;;;27.20;98.60;27.00;99254.00;;;;348648;27;83480;-92
2023/07/12 00:14:30;;;;;;;;;;;27.10;98.60;27.10;99253.00;;;;347064;28;89282;-92
2023/07/12 00:14:42;;;;;;;;;;;27.10;98.60;27.00;99253.00;;;;347225;28;83665;-92
2023/07/12 00:14:54;;;;;;;;;;;27.10;98.60;27.00;99249.00;;;;345784;28;87963;-91
2023/07/12 00:15:09;;;;;;;;;;;27.20;98.60;27.10;99255.00;;;;345891;28;82600;-91
2023/07/12 00:15:23;;;;;;;;;;;27.10;98.60;27.00;99249.00;;;;347013;28;92630;-92
2023/07/12 00:15:35;;;;;;;;;;;27.20;98.60;26.90;99259.00;;;;346171;28;83416;-92
2023/07/12 00:15:47;;;;;;;;;;;27.10;98.70;27.00;99256.00;;;;344124;28;91544;-92
2023/07/12 00:15:59;;;;;;;;;;;27.10;98.60;27.10;99244.00;;;;347463;28;83457;-91
2023/07/12 00:16:23;;;;;;;;;;;27.10;98.60;27.10;99261.00;;;;347124;28;90335;-91
2023/07/12 00:16:37;;;;;;;;;;;27.20;98.60;27.20;99265.00;;;;343422;28;83350;-92
2023/07/12 00:16:49;;;;;;;;;;;27.10;98.80;27.20;99269.00;;;;345401;28;90437;-91
2023/07/12 00:17:01;;;;;;;;;;;27.20;98.60;27.20;99257.00;;;;346125;28;83415;-92
2023/07/12 00:17:14;;;;;;;;;;;27.20;98.60;27.20;99270.00;;;;346992;28;90766;-92
2023/07/12 00:17:26;;;;;;;;;;;27.20;98.60;27.20;99262.00;;;;350033;27;83436;-91
2023/07/12 00:17:38;;;;;;;;;;;27.20;98.60;27.10;99268.00;;;;347091;28;91413;-92
2023/07/12 00:17:51;;;;;;;;;;;27.20;98.60;27.10;99270.00;;;;346181;28;83496;-91
2023/07/12 00:18:03;;;;;;;;;;;27.20;98.60;27.10;99274.00;;;;345665;28;91325;-92
2023/07/12 00:18:19;;;;;;;;;;;27.20;98.60;27.10;99269.00;;;;344748;28;83364;-92
2023/07/12 00:18:31;;;;;;;;;;;27.20;98.70;27.10;99273.00;;;;345746;28;90420;-92
2023/07/12 00:18:43;;;;;;;;;;;27.20;98.70;27.10;99276.00;;;;347579;28;82536;-91
2023/07/12 00:18:55;;;;;;;;;;;27.20;98.80;27.10;99282.00;;;;347081;28;91599;-92
2023/07/12 00:19:13;;;;;;;;;;;27.20;98.70;27.10;99281.00;;;;346051;28;83415;-91
2023/07/12 00:19:25;;;;;;;;;;;27.20;99.00;27.00;99278.00;;;;345600;28;91732;-93
2023/07/12 00:19:36;;;;;;;;;;;27.20;99.30;27.00;99282.00;;;;347162;28;83315;-92
2023/07/12 00:19:48;;;;;;;;;;;27.20;99.30;27.00;99285.00;;;;345364;28;91613;-91
2023/07/12 00:20:00;;;;;;;;;;;27.20;99.80;27.00;99289.00;;;;344764;28;83424;-91
2023/07/12 00:20:18;;;;;;;;;;;27.20;99.80;27.00;99293.00;;;;344305;28;90500;-91
2023/07/12 00:20:32;;;;;;;;;;;27.20;99.70;27.00;99289.00;;;;346053;28;83513;-91
2023/07/12 00:20:45;;;;;;;;;;;27.20;99.90;27.00;99292.00;;;;344419;28;90376;-92
2023/07/12 00:20:56;;;;;;;;;;;27.20;99.90;26.90;99293.00;;;;344749;28;83408;-91
2023/07/12 00:21:08;;;;;;;;;;;27.20;99.90;27.00;99290.00;;;;344221;28;89260;-91
2023/07/12 00:21:23;;;;;;;;;;;27.20;99.90;26.90;99293.00;;;;344715;28;83435;-91
2023/07/12 00:21:35;;;;;;;;;;;27.20;99.90;27.00;99297.00;;;;347110;28;91672;-91
2023/07/12 00:21:47;;;;;;;;;;;27.20;99.90;26.90;99298.00;;;;347485;28;82523;-90
2023/07/12 00:21:59;;;;;;;;;;;27.20;99.90;26.80;99307.00;;;;346817;28;91287;-91
2023/07/12 00:22:11;;;;;;;;;;;27.20;99.90;26.80;99305.00;;;;347202;28;83458;-93
2023/07/12 00:22:23;;;;;;;;;;;27.10;99.90;26.90;99294.00;;;;345682;28;91845;-92
2023/07/12 00:22:35;;;;;;;;;;;27.10;99.90;26.90;99299.00;;;;345923;28;83564;-91
2023/07/12 00:22:47;;;;;;;;;;;27.10;99.90;26.90;99309.00;;;;345492;28;90511;-91
2023/07/12 00:22:59;;;;;;;;;;;27.20;99.90;27.00;99305.00;;;;347502;28;83315;-92
2023/07/12 00:23:14;;;;;;;;;;;27.10;99.90;27.00;99295.00;;;;345314;28;90506;-92
2023/07/12 00:23:26;;;;;;;;;;;27.20;99.90;26.90;99300.00;;;;347335;27;82572;-92
2023/07/12 00:23:38;;;;;;;;;;;27.20;99.90;26.90;99306.00;;;;345675;28;90619;-91
2023/07/12 00:23:55;;;;;;;;;;;27.20;99.90;26.90;99306.00;;;;347455;28;83489;-91
2023/07/12 00:24:07;;;;;;;;;;;27.10;99.90;27.00;99297.00;;;;345412;28;91490;-91
2023/07/12 00:24:19;;;;;;;;;;;27.10;99.90;26.90;99305.00;;;;346193;28;83337;-91
2023/07/12 00:24:31;;;;;;;;;;;27.10;99.90;26.90;99305.00;;;;348418;27;91432;-91
2023/07/12 00:24:43;;;;;;;;;;;27.10;99.90;26.70;99300.00;;;;344777;28;83161;-91
2023/07/12 00:24:55;;;;;;;;;;;27.10;99.90;26.80;99306.00;;;;345757;28;91486;-92
2023/07/12 00:25:09;;;;;;;;;;;27.10;99.90;26.80;99304.00;;;;347491;28;83359;-92
2023/07/12 00:25:22;;;;;;;;;;;27.10;99.90;26.90;99308.00;;;;347154;28;91436;-91
2023/07/12 00:25:34;;;;;;;;;;;27.10;99.90;26.80;99305.00;;;;348906;27;84231;-91
2023/07/12 00:25:47;;;;;;;;;;;27.10;99.90;26.60;99309.00;;;;345653;28;91509;-92
2023/07/12 00:25:59;;;;;;;;;;;27.10;99.90;26.70;99305.00;;;;344477;28;83404;-92
2023/07/12 00:26:34;;;;;;;;;;;27.10;99.90;26.70;99307.00;;;;346795;28;91638;-91
2023/07/12 00:26:46;;;;;;;;;;;27.00;99.90;26.80;99298.00;;;;342028;28;82633;-92
2023/07/12 00:27:00;;;;;;;;;;;27.00;99.90;26.80;99295.00;;;;341999;28;91713;-91
2023/07/12 00:27:12;;;;;;;;;;;27.00;99.90;26.70;99293.00;;;;347488;28;82567;-92
2023/07/12 00:27:24;;;;;;;;;;;27.00;99.90;26.70;99290.00;;;;347100;28;91695;-92
2023/07/12 00:27:36;;;;;;;;;;;27.00;99.90;26.60;99289.00;;;;347471;28;83363;-91
2023/07/12 00:27:48;;;;;;;;;;;27.00;99.90;26.70;99289.00;;;;345720;28;91157;-91
2023/07/12 00:28:00;;;;;;;;;;;27.00;99.90;26.70;99289.00;;;;345923;28;83413;-91
2023/07/12 00:28:21;;;;;;;;;;;27.00;99.90;26.70;99287.00;;;;347084;28;90694;-91
2023/07/12 00:28:33;;;;;;;;;;;27.00;99.90;26.60;99288.00;;;;347566;27;82492;-91
2023/07/12 00:28:45;;;;;;;;;;;27.00;99.90;26.60;99287.00;;;;345531;28;91538;-92
2023/07/12 00:28:58;;;;;;;;;;;27.00;99.90;26.60;99282.00;;;;347364;28;83481;-91
2023/07/12 00:29:13;;;;;;;;;;;27.00;99.90;26.60;99277.00;;;;348325;27;89828;-91
2023/07/12 00:29:25;;;;;;;;;;;26.90;99.90;26.60;99281.00;;;;345922;28;83416;-91
2023/07/12 00:29:36;;;;;;;;;;;26.90;99.90;26.60;99281.00;;;;345585;28;90318;-92
2023/07/12 00:29:48;;;;;;;;;;;26.90;99.90;26.70;99286.00;;;;346251;28;83423;-91
2023/07/12 00:30:00;;;;;;;;;;;26.90;99.90;26.70;99285.00;;;;348532;27;90574;-91
2023/07/12 00:30:37;;;;;;;;;;;26.90;99.90;26.60;99276.00;;;;346229;28;82476;-91
2023/07/12 00:30:50;;;;;;;;;;;26.90;99.90;26.60;99283.00;;;;345636;28;90349;-91
2023/07/12 00:31:01;;;;;;;;;;;26.90;99.90;26.60;99281.00;;;;346080;28;83462;-91
2023/07/12 00:31:13;;;;;;;;;;;26.90;99.90;26.60;99289.00;;;;345586;28;92523;-91
2023/07/12 00:31:25;;;;;;;;;;;26.90;99.90;26.60;99281.00;;;;344702;28;83231;-91
2023/07/12 00:31:37;;;;;;;;;;;26.90;99.90;26.60;99277.00;;;;345624;28;91720;-91
2023/07/12 00:31:49;;;;;;;;;;;26.90;99.90;26.60;99284.00;;;;344660;28;83496;-91
2023/07/12 00:32:01;;;;;;;;;;;26.90;99.90;26.60;99279.00;;;;347235;28;89201;-92
2023/07/12 00:32:13;;;;;;;;;;;26.90;99.90;26.60;99280.00;;;;346128;28;83449;-91
2023/07/12 00:32:25;;;;;;;;;;;26.90;99.90;26.60;99281.00;;;;348447;27;91821;-92
2023/07/12 00:32:37;;;;;;;;;;;26.90;99.90;26.70;99277.00;;;;347202;28;82594;-91
2023/07/12 00:32:50;;;;;;;;;;;26.80;99.90;26.70;99281.00;;;;345668;28;89974;-92
2023/07/12 00:33:03;;;;;;;;;;;26.80;99.90;26.60;99276.00;;;;344747;28;82517;-91
2023/07/12 00:33:16;;;;;;;;;;;26.90;99.90;26.60;99285.00;;;;347109;28;91180;-91
2023/07/12 00:33:28;;;;;;;;;;;26.90;99.90;26.60;99283.00;;;;346091;28;82477;-91
2023/07/12 00:33:39;;;;;;;;;;;26.80;99.90;26.50;99284.00;;;;344206;28;91602;-92
2023/07/12 00:33:52;;;;;;;;;;;26.90;99.90;26.60;99282.00;;;;343316;28;82490;-91
2023/07/12 00:34:04;;;;;;;;;;;26.80;99.90;26.60;99283.00;;;;343017;28;90853;-91
2023/07/12 00:34:15;;;;;;;;;;;26.80;99.90;26.60;99278.00;;;;346138;28;82509;-92
2023/07/12 00:34:27;;;;;;;;;;;26.80;99.90;26.60;99289.00;;;;345656;28;91303;-91
2023/07/12 00:34:39;;;;;;;;;;;26.80;99.90;26.60;99279.00;;;;348851;27;83387;-91
2023/07/12 00:34:51;;;;;;;;;;;26.80;99.90;26.70;99281.00;;;;345642;28;91745;-91
2023/07/12 00:35:03;;;;;;;;;;;26.80;99.90;26.60;99283.00;;;;347447;28;83466;-91
2023/07/12 00:35:17;;;;;;;;;;;26.80;99.90;26.60;99284.00;;;;348421;27;92702;-90
2023/07/12 00:35:30;;;;;;;;;;;26.80;99.90;26.60;99284.00;;;;347291;28;83496;-92
2023/07/12 00:35:42;;;;;;;;;;;26.80;99.90;26.60;99282.00;;;;346984;28;90070;-92
2023/07/12 00:35:54;;;;;;;;;;;26.80;99.90;26.60;99285.00;;;;347041;28;83237;-91
2023/07/12 00:36:15;;;;;;;;;;;26.80;99.90;26.60;99283.00;;;;347135;28;91573;-92
2023/07/12 00:36:28;;;;;;;;;;;26.80;99.90;26.70;99275.00;;;;348900;27;83396;-91
2023/07/12 00:36:40;;;;;;;;;;;26.80;99.90;26.70;99284.00;;;;345729;28;90091;-91
2023/07/12 00:36:52;;;;;;;;;;;26.80;99.90;26.70;99276.00;;;;346193;28;82479;-91
2023/07/12 00:37:11;;;;;;;;;;;26.80;99.90;26.60;99281.00;;;;345606;28;90427;-91
2023/07/12 00:37:23;;;;;;;;;;;26.80;99.90;26.70;99273.00;;;;346122;28;83432;-91
2023/07/12 00:37:35;;;;;;;;;;;26.80;99.90;26.70;99275.00;;;;345730;28;90955;-91
2023/07/12 00:37:47;;;;;;;;;;;26.80;99.90;26.70;99276.00;;;;347469;27;82568;-91
2023/07/12 00:38:00;;;;;;;;;;;26.80;99.90;26.70;99280.00;;;;345667;28;91640;-91
2023/07/12 00:38:17;;;;;;;;;;;26.80;99.90;26.60;99277.00;;;;346126;28;82467;-91
2023/07/12 00:38:29;;;;;;;;;;;26.80;99.90;26.60;99270.00;;;;346952;28;91477;-91
2023/07/12 00:38:41;;;;;;;;;;;26.80;99.90;26.70;99276.00;;;;344741;28;83448;-91
2023/07/12 00:38:53;;;;;;;;;;;26.80;99.90;26.70;99273.00;;;;344156;28;91603;-91
2023/07/12 00:39:05;;;;;;;;;;;26.80;99.90;26.70;99261.00;;;;348716;27;83443;-91
2023/07/12 00:39:17;;;;;;;;;;;26.80;99.90;26.70;99275.00;;;;347078;28;91546;-92
2023/07/12 00:39:29;;;;;;;;;;;26.80;99.90;26.60;99267.00;;;;346100;28;83529;-91
2023/07/12 00:39:41;;;;;;;;;;;26.80;99.90;26.60;99269.00;;;;345499;28;92420;-92
2023/07/12 00:39:53;;;;;;;;;;;26.80;99.90;26.70;99265.00;;;;344762;28;83479;-91
2023/07/12 00:40:28;;;;;;;;;;;26.80;99.90;26.70;99261.00;;;;345613;28;91608;-92
2023/07/12 00:41:02;;;;;;;;;;;26.80;99.90;26.70;99260.00;;;;347499;28;83524;-91
2023/07/12 00:41:19;;;;;;;;;;;26.80;99.90;26.40;99254.00;;;;345553;28;90467;-91
2023/07/12 00:41:55;;;;;;;;;;;26.80;99.90;26.40;99258.00;;;;346054;28;83486;-92
2023/07/12 00:42:17;;;;;;;;;;;26.70;99.90;26.50;99258.00;;;;348264;27;90550;-91
2023/07/12 00:42:33;;;;;;;;;;;26.70;99.90;26.60;99247.00;;;;347158;28;83485;-91
2023/07/12 00:42:46;;;;;;;;;;;26.70;99.90;26.60;99251.00;;;;346707;28;90989;-91
2023/07/12 00:43:04;;;;;;;;;;;26.70;99.90;26.60;99247.00;;;;344713;28;83381;-92
2023/07/12 00:43:25;;;;;;;;;;;26.70;99.90;26.40;99248.00;;;;347076;28;91127;-91
2023/07/12 00:43:38;;;;;;;;;;;26.60;99.90;26.10;99241.00;;;;348906;27;83409;-91
2023/07/12 00:43:57;;;;;;;;;;;26.60;99.90;26.10;99241.00;;;;346939;28;90501;-91
2023/07/12 00:44:11;;;;;;;;;;;26.50;99.90;26.10;99243.00;;;;346108;28;83357;-91
2023/07/12 00:44:45;;;;;;;;;;;26.50;99.90;26.30;99251.00;;;;345564;28;90130;-92
2023/07/12 00:44:57;;;;;;;;;;;26.40;99.90;26.30;99243.00;;;;344714;28;82604;-91
2023/07/12 00:45:09;;;;;;;;;;;26.50;99.90;26.40;99244.00;;;;346919;28;91927;-92
2023/07/12 00:45:21;;;;;;;;;;;26.40;99.90;26.40;99245.00;;;;347583;28;82231;-91
2023/07/12 00:45:33;;;;;;;;;;;26.40;99.90;26.40;99246.00;;;;346787;28;89409;-92
2023/07/12 00:45:45;;;;;;;;;;;26.50;99.90;26.40;99249.00;;;;345923;28;83468;-92
2023/07/12 00:45:58;;;;;;;;;;;26.40;99.90;26.30;99248.00;;;;346772;28;92504;-92
2023/07/12 00:46:24;;;;;;;;;;;26.40;99.90;26.20;99252.00;;;;346121;28;83374;-92
2023/07/12 00:46:57;;;;;;;;;;;26.40;99.90;26.20;99258.00;;;;347074;28;90334;-92
2023/07/12 00:47:11;;;;;;;;;;;26.40;99.90;26.30;99259.00;;;;348657;27;83277;-90
2023/07/12 00:47:23;;;;;;;;;;;26.40;99.90;26.30;99261.00;;;;347081;28;91693;-92
2023/07/12 00:47:35;;;;;;;;;;;26.30;99.90;26.40;99269.00;;;;347490;28;83274;-91
2023/07/12 00:47:46;;;;;;;;;;;26.30;99.90;26.40;99267.00;;;;347035;28;91596;-92
2023/07/12 00:47:58;;;;;;;;;;;26.30;99.90;26.40;99276.00;;;;346028;28;83389;-92
2023/07/12 00:48:12;;;;;;;;;;;26.30;99.90;26.40;99274.00;;;;347098;28;90486;-91
2023/07/12 00:48:24;;;;;;;;;;;26.40;99.90;26.40;99279.00;;;;345962;28;83465;-92
2023/07/12 00:48:36;;;;;;;;;;;26.40;99.90;26.50;99276.00;;;;347111;28;91156;-91
2023/07/12 00:48:47;;;;;;;;;;;26.40;99.90;26.50;99278.00;;;;346026;28;83406;-91
2023/07/12 00:48:59;;;;;;;;;;;26.40;99.90;26.50;99283.00;;;;345393;28;91292;-91
2023/07/12 00:49:11;;;;;;;;;;;26.40;99.90;26.40;99290.00;;;;347532;28;82398;-92
2023/07/12 00:49:23;;;;;;;;;;;26.40;99.90;26.30;99282.00;;;;347105;28;90894;-91
2023/07/12 00:49:35;;;;;;;;;;;26.40;99.90;26.40;99286.00;;;;347522;28;82464;-91
2023/07/12 00:49:47;;;;;;;;;;;26.40;99.90;26.30;99276.00;;;;347081;28;90537;-91
2023/07/12 00:50:00;;;;;;;;;;;26.40;99.90;26.30;99284.00;;;;347546;28;83471;-91
2023/07/12 00:50:19;;;;;;;;;;;26.40;99.90;26.30;99281.00;;;;346964;28;91137;-92
2023/07/12 00:50:30;;;;;;;;;;;26.40;99.90;26.30;99289.00;;;;347187;28;83315;-92
2023/07/12 00:50:42;;;;;;;;;;;26.40;99.90;26.30;99282.00;;;;347096;28;92088;-92
2023/07/12 00:50:54;;;;;;;;;;;26.40;99.90;26.30;99287.00;;;;346083;28;83362;-93
2023/07/12 00:51:25;;;;;;;;;;;26.40;99.90;26.20;99287.00;;;;346920;28;89897;-91
2023/07/12 00:51:43;;;;;;;;;;;26.40;99.90;26.10;99282.00;;;;344596;28;83500;-92
2023/07/12 00:52:02;;;;;;;;;;;26.40;99.90;26.00;99280.00;;;;346737;28;90496;-92
2023/07/12 00:52:18;;;;;;;;;;;26.40;99.90;26.10;99284.00;;;;348636;27;83465;-91
2023/07/12 00:52:30;;;;;;;;;;;26.40;99.90;26.20;99285.00;;;;348180;27;89512;-91
2023/07/12 00:52:42;;;;;;;;;;;26.40;99.90;26.30;99286.00;;;;345916;28;83441;-92
2023/07/12 00:52:54;;;;;;;;;;;26.40;99.90;26.20;99288.00;;;;345657;28;88216;-92
2023/07/12 00:53:12;;;;;;;;;;;26.40;99.90;26.10;99286.00;;;;347449;28;83452;-92
2023/07/12 00:53:24;;;;;;;;;;;26.40;99.90;26.20;99287.00;;;;346968;28;92152;-92
2023/07/12 00:53:36;;;;;;;;;;;26.40;99.90;26.10;99284.00;;;;346059;28;82480;-92
2023/07/12 00:53:48;;;;;;;;;;;26.40;99.90;26.10;99289.00;;;;345587;28;91385;-92
2023/07/12 00:54:00;;;;;;;;;;;26.30;99.90;26.00;99289.00;;;;345968;28;83538;-92
2023/07/12 00:54:17;;;;;;;;;;;26.30;99.90;26.00;99284.00;;;;344299;28;91436;-93
2023/07/12 00:54:51;;;;;;;;;;;26.30;99.90;26.00;99287.00;;;;347338;28;82564;-92
2023/07/12 00:55:04;;;;;;;;;;;26.30;99.90;25.90;99283.00;;;;345310;28;89569;-92
2023/07/12 00:55:53;;;;;;;;;;;26.30;99.90;26.00;99291.00;;;;345814;28;82500;-92
2023/07/12 00:56:06;;;;;;;;;;;26.30;99.90;26.00;99293.00;;;;345609;28;91624;-92
2023/07/12 00:56:18;;;;;;;;;;;26.30;99.90;26.00;99293.00;;;;348645;27;83506;-92
2023/07/12 00:56:30;;;;;;;;;;;26.30;99.90;25.90;99286.00;;;;345609;28;91029;-91
2023/07/12 00:56:42;;;;;;;;;;;26.20;99.90;26.00;99292.00;;;;348839;27;83436;-91
2023/07/12 00:56:54;;;;;;;;;;;26.20;99.90;26.20;99290.00;;;;344402;28;91346;-92
2023/07/12 00:57:06;;;;;;;;;;;26.30;99.90;26.20;99292.00;;;;347395;28;82580;-91
2023/07/12 00:57:17;;;;;;;;;;;26.30;99.90;26.30;99298.00;;;;345717;28;91400;-92
2023/07/12 00:57:30;;;;;;;;;;;26.30;99.90;26.30;99304.00;;;;345988;28;82666;-92
2023/07/12 00:57:42;;;;;;;;;;;26.30;99.90;26.20;99304.00;;;;344115;28;91668;-92
2023/07/12 00:57:54;;;;;;;;;;;26.30;99.90;26.20;99304.00;;;;346169;28;83370;-91
2023/07/12 00:58:05;;;;;;;;;;;26.30;99.90;26.30;99299.00;;;;348357;27;91899;-92
2023/07/12 00:58:17;;;;;;;;;;;26.30;99.90;26.30;99316.00;;;;348884;27;83342;-92
2023/07/12 00:58:41;;;;;;;;;;;26.30;99.90;26.30;99316.00;;;;348409;27;91796;-92
2023/07/12 00:59:01;;;;;;;;;;;26.30;99.90;26.30;99315.00;;;;347531;28;83475;-92
2023/07/12 00:59:21;;;;;;;;;;;26.30;99.90;26.30;99317.00;;;;348225;27;91736;-92
2023/07/12 00:59:34;;;;;;;;;;;26.30;99.90;26.20;99323.00;;;;347511;28;83546;-92
2023/07/12 00:59:46;;;;;;;;;;;26.30;99.90;26.20;99324.00;;;;348359;27;90755;-92
2023/07/12 01:00:07;;;;;;;;;;;26.30;99.90;26.20;99326.00;;;;345962;28;83516;-92
2023/07/12 01:00:19;;;;;;;;;;;26.30;99.90;26.20;99326.00;;;;346865;28;91070;-93
2023/07/12 01:00:31;;;;;;;;;;;26.30;99.90;26.20;99331.00;;;;346089;28;83349;-93
2023/07/12 01:00:43;;;;;;;;;;;26.30;99.90;26.30;99329.00;;;;345313;28;91620;-93
2023/07/12 01:00:55;;;;;;;;;;;26.30;99.90;26.30;99332.00;;;;346081;28;82447;-93
2023/07/12 01:01:06;;;;;;;;;;;26.30;99.90;26.30;99332.00;;;;346952;28;91411;-93
2023/07/12 01:01:20;;;;;;;;;;;26.30;99.90;26.30;99348.00;;;;347478;28;82452;-92
2023/07/12 01:01:32;;;;;;;;;;;26.30;99.90;26.20;99338.00;;;;344358;28;91896;-92
2023/07/12 01:01:44;;;;;;;;;;;26.30;99.90;26.10;99351.00;;;;345990;28;83625;-92
2023/07/12 01:01:59;;;;;;;;;;;26.30;99.90;26.10;99355.00;;;;346945;28;89216;-92
2023/07/12 01:02:11;;;;;;;;;;;26.30;99.90;26.10;99360.00;;;;347488;28;82478;-92
2023/07/12 01:02:25;;;;;;;;;;;26.30;99.90;26.10;99360.00;;;;348443;27;89182;-91
2023/07/12 01:02:39;;;;;;;;;;;26.30;99.90;26.20;99356.00;;;;347244;28;83403;-92
2023/07/12 01:02:51;;;;;;;;;;;26.30;99.90;26.20;99361.00;;;;346994;28;92324;-93
2023/07/12 01:03:04;;;;;;;;;;;26.30;99.90;26.20;99368.00;;;;345974;28;83335;-93
2023/07/12 01:03:16;;;;;;;;;;;26.30;99.90;26.30;99373.00;;;;345561;28;92691;-93
2023/07/12 01:03:30;;;;;;;;;;;26.30;99.90;26.00;99388.00;;;;345880;28;83478;-92
2023/07/12 01:03:44;;;;;;;;;;;26.30;99.90;26.10;99390.00;;;;345279;28;90838;-92
2023/07/12 01:03:55;;;;;;;;;;;26.30;99.90;25.90;99388.00;;;;348633;27;83403;-92
2023/07/12 01:04:08;;;;;;;;;;;26.30;99.90;25.90;99389.00;;;;345516;28;91612;-93
2023/07/12 01:04:24;;;;;;;;;;;26.20;99.90;25.90;99395.00;;;;347537;28;82587;-93
2023/07/12 01:04:39;;;;;;;;;;;26.20;99.90;25.80;99406.00;;;;347051;28;91651;-93
2023/07/12 01:04:53;;;;;;;;;;;26.20;99.90;25.80;99411.00;;;;347349;28;83987;-93
2023/07/12 01:05:05;;;;;;;;;;;26.20;99.90;25.60;99422.00;;;;348394;27;89968;-93
2023/07/12 01:05:17;;;;;;;;;;;26.10;99.90;25.80;99425.00;;;;348708;27;83469;-93
2023/07/12 01:05:29;;;;;;;;;;;26.10;99.90;25.70;99430.00;;;;344242;28;92208;-93
2023/07/12 01:05:42;;;;;;;;;;;26.10;99.90;25.60;99445.00;;;;348675;27;83474;-93
2023/07/12 01:05:54;;;;;;;;;;;26.10;99.90;25.60;99451.00;;;;347063;28;90756;-95
2023/07/12 01:06:07;;;;;;;;;;;26.10;99.90;25.60;99463.00;;;;348915;27;82362;-92
2023/07/12 01:06:19;;;;;;;;;;;26.10;99.90;25.60;99464.00;;;;347063;28;90815;-92
2023/07/12 01:06:31;;;;;;;;;;;26.00;99.90;25.50;99470.00;;;;348546;27;82526;-93
2023/07/12 01:06:42;;;;;;;;;;;26.00;99.90;25.50;99477.00;;;;346833;28;90680;-93
2023/07/12 01:06:54;;;;;;;;;;;26.00;99.90;25.40;99474.00;;;;348882;27;82506;-95
2023/07/12 01:07:06;;;;;;;;;;;25.90;99.90;25.30;99481.00;;;;346982;28;91606;-95
2023/07/12 01:07:19;;;;;;;;;;;25.90;99.90;25.50;99481.00;;;;349053;27;82350;-95
2023/07/12 01:07:31;;;;;;;;;;;25.90;99.90;25.50;99488.00;;;;345579;28;92697;-95
2023/07/12 01:07:43;;;;;;;;;;;25.90;99.90;25.60;99487.00;;;;347346;28;83402;-95
2023/07/12 01:07:54;;;;;;;;;;;25.80;99.90;25.40;99490.00;;;;348246;27;90334;-94
2023/07/12 01:08:06;;;;;;;;;;;25.80;99.90;25.40;99487.00;;;;346021;28;83582;-94
2023/07/12 01:08:19;;;;;;;;;;;25.80;99.90;25.40;99494.00;;;;347092;28;91648;-96
2023/07/12 01:08:31;;;;;;;;;;;25.80;99.90;25.50;99503.00;;;;347506;28;83427;-96
2023/07/12 01:08:43;;;;;;;;;;;25.80;99.90;25.20;99502.00;;;;348304;27;90585;-95